createdAt,value
2023-03-06T00:00:30.806Z,56.35
2023-03-06T00:02:58.000Z,51.92
2023-03-06T00:05:27.467Z,56.03
2023-03-06T00:07:54.599Z,53.08
2023-03-06T00:10:28.641Z,57.92
2023-03-06T00:12:59.081Z,52.78
2023-03-06T00:15:27.334Z,55.22
2023-03-06T00:17:55.117Z,55.65
2023-03-06T00:20:22.490Z,54.00
2023-03-06T00:22:50.057Z,52.60
2023-03-06T00:25:19.778Z,56.53
2023-03-06T00:27:47.387Z,54.50
2023-03-06T00:30:20.340Z,59.70
2023-03-06T00:32:47.936Z,56.53
2023-03-06T00:35:15.728Z,61.47
2023-03-06T00:37:42.993Z,58.33
2023-03-06T00:40:16.378Z,60.28
2023-03-06T00:42:43.429Z,57.65
2023-03-06T00:45:11.121Z,52.20
2023-03-06T00:47:38.116Z,54.60
2023-03-06T00:50:05.986Z,58.95
2023-03-06T00:52:33.409Z,55.90
2023-03-06T00:55:00.435Z,53.33
2023-03-06T00:57:27.309Z,59.03
2023-03-06T00:59:54.129Z,52.22
2023-03-06T01:02:21.455Z,48.45
2023-03-06T01:04:49.156Z,53.60
2023-03-06T01:07:16.065Z,50.47
2023-03-06T01:09:42.974Z,50.88
2023-03-06T01:12:10.040Z,56.70
2023-03-06T01:14:37.197Z,52.63
2023-03-06T01:17:04.319Z,55.58
2023-03-06T01:19:31.153Z,51.95
2023-03-06T01:21:57.966Z,52.00
2023-03-06T01:24:25.992Z,52.25
2023-03-06T01:26:53.100Z,50.67
2023-03-06T01:29:20.816Z,53.78
2023-03-06T01:31:47.895Z,48.50
2023-03-06T01:34:14.803Z,48.95
2023-03-06T01:36:41.665Z,51.03
2023-03-06T01:39:08.745Z,53.35
2023-03-06T01:41:35.822Z,51.42
2023-03-06T01:44:03.196Z,53.22
2023-03-06T01:46:34.613Z,50.67
2023-03-06T01:49:07.515Z,52.15
2023-03-06T01:52:02.640Z,49.38
2023-03-06T01:54:34.532Z,56.95
2023-03-06T01:57:08.528Z,56.00
2023-03-06T01:59:36.856Z,53.85
2023-03-06T02:02:06.051Z,54.95
2023-03-06T02:04:34.297Z,56.55
2023-03-06T02:07:06.309Z,59.72
2023-03-06T02:09:34.858Z,52.88
2023-03-06T02:12:03.282Z,50.50
2023-03-06T02:14:30.690Z,50.10
2023-03-06T02:16:57.858Z,52.30
2023-03-06T02:19:52.001Z,54.72
2023-03-06T02:22:19.094Z,51.88
2023-03-06T02:24:52.492Z,56.47
2023-03-06T02:27:20.765Z,51.97
2023-03-06T02:29:47.913Z,56.53
2023-03-06T02:32:14.965Z,50.85
2023-03-06T02:34:57.490Z,55.78
2023-03-06T02:37:26.266Z,53.25
2023-03-06T02:40:03.019Z,54.83
2023-03-06T02:42:30.210Z,57.92
2023-03-06T02:44:59.764Z,57.03
2023-03-06T02:47:26.983Z,57.22
2023-03-06T02:49:53.820Z,53.47
2023-03-06T02:52:20.945Z,59.97
2023-03-06T02:54:48.081Z,50.17
2023-03-06T02:57:15.197Z,52.90
2023-03-06T02:59:42.301Z,57.08
2023-03-06T03:02:09.365Z,52.88
2023-03-06T03:04:39.464Z,52.20
2023-03-06T03:07:06.366Z,55.20
2023-03-06T03:09:36.967Z,55.45
2023-03-06T03:12:05.846Z,58.80
2023-03-06T03:14:32.866Z,51.63
2023-03-06T03:17:00.487Z,57.22
2023-03-06T03:19:27.804Z,56.55
2023-03-06T03:21:54.680Z,54.92
2023-03-06T03:24:21.548Z,54.78
2023-03-06T03:26:48.543Z,57.10
2023-03-06T03:29:15.483Z,55.00
2023-03-06T03:31:42.299Z,56.97
2023-03-06T03:34:09.333Z,55.63
2023-03-06T03:36:36.637Z,58.15
2023-03-06T03:39:04.336Z,49.38
2023-03-06T03:41:32.423Z,53.28
2023-03-06T03:43:59.983Z,52.45
2023-03-06T03:46:27.787Z,53.40
2023-03-06T03:48:55.302Z,53.20
2023-03-06T03:51:24.268Z,54.75
2023-03-06T03:53:51.409Z,52.63
2023-03-06T03:56:19.220Z,53.97
2023-03-06T03:58:46.376Z,51.50
2023-03-06T04:01:13.535Z,53.95
2023-03-06T04:03:40.718Z,49.92
2023-03-06T04:06:09.472Z,53.20
2023-03-06T04:08:36.714Z,50.75
2023-03-06T04:11:03.880Z,51.50
2023-03-06T04:13:30.735Z,55.35
2023-03-06T04:15:59.157Z,56.70
2023-03-06T04:18:26.737Z,61.17
2023-03-06T04:20:53.722Z,50.30
2023-03-06T04:23:22.896Z,52.65
2023-03-06T04:25:50.131Z,57.10
2023-03-06T04:28:17.403Z,52.08
2023-03-06T04:30:44.245Z,55.92
2023-03-06T04:33:11.421Z,53.53
2023-03-06T04:35:38.608Z,57.45
2023-03-06T04:38:05.805Z,54.97
2023-03-06T04:40:34.985Z,52.30
2023-03-06T04:43:03.234Z,57.95
2023-03-06T04:45:31.152Z,59.15
2023-03-06T04:47:59.242Z,57.38
2023-03-06T04:50:28.363Z,59.67
2023-03-06T04:52:55.256Z,53.00
2023-03-06T04:55:22.116Z,57.53
2023-03-06T04:57:49.020Z,57.38
2023-03-06T05:00:20.722Z,56.13
2023-03-06T05:02:48.853Z,62.10
2023-03-06T05:05:16.649Z,56.67
2023-03-06T05:07:43.529Z,60.95
2023-03-06T05:10:16.480Z,57.92
2023-03-06T05:12:44.057Z,56.13
2023-03-06T05:15:12.902Z,62.88
2023-03-06T05:17:40.378Z,64.07
2023-03-06T05:20:09.785Z,64.95
2023-03-06T05:22:36.857Z,61.40
2023-03-06T05:25:04.976Z,63.15
2023-03-06T05:27:32.693Z,64.38
2023-03-06T05:30:00.312Z,70.43
2023-03-06T05:32:27.492Z,54.78
2023-03-06T05:34:54.867Z,58.45
2023-03-06T05:37:23.147Z,61.65
2023-03-06T05:39:50.858Z,59.45
2023-03-06T05:42:18.527Z,59.55
2023-03-06T05:44:45.781Z,60.22
2023-03-06T05:47:13.419Z,59.15
2023-03-06T05:49:40.514Z,61.78
2023-03-06T05:52:08.202Z,68.50
2023-03-06T05:54:36.530Z,59.85
2023-03-06T05:57:04.990Z,63.50
2023-03-06T05:59:33.158Z,57.83
2023-03-06T06:02:00.912Z,61.92
2023-03-06T06:04:28.137Z,57.78
2023-03-06T06:06:57.814Z,58.75
2023-03-06T06:09:25.855Z,64.40
2023-03-06T06:11:54.476Z,64.40
2023-03-06T06:14:21.756Z,63.63
2023-03-06T06:16:48.732Z,71.88
2023-03-06T06:19:18.890Z,59.90
2023-03-06T06:21:51.189Z,61.53
2023-03-06T06:24:20.038Z,56.60
2023-03-06T06:26:47.508Z,64.18
2023-03-06T06:29:15.357Z,59.65
2023-03-06T06:31:42.505Z,63.45
2023-03-06T06:34:11.019Z,59.42
2023-03-06T06:36:38.472Z,64.70
2023-03-06T06:39:07.072Z,61.28
2023-03-06T06:44:21.585Z,61.50
2023-03-06T06:47:21.189Z,59.15
2023-03-06T06:49:37.431Z,66.03
2023-03-06T06:52:05.929Z,65.40
2023-03-06T06:54:34.407Z,63.17
2023-03-06T06:57:01.273Z,62.40
2023-03-06T06:59:28.192Z,61.08
2023-03-06T07:01:55.035Z,61.53
2023-03-06T07:04:22.361Z,64.20
2023-03-06T07:06:49.238Z,75.50
2023-03-06T07:09:16.472Z,64.75
2023-03-06T07:11:43.299Z,61.05
2023-03-06T07:14:10.227Z,63.72
2023-03-06T07:16:37.096Z,60.50
2023-03-06T07:19:04.362Z,64.35
2023-03-06T07:21:31.340Z,60.75
2023-03-06T07:23:58.710Z,63.13
2023-03-06T07:26:27.446Z,62.60
2023-03-06T07:28:55.095Z,62.80
2023-03-06T07:31:24.796Z,66.78
2023-03-06T07:33:53.489Z,64.28
2023-03-06T07:36:21.749Z,63.55
2023-03-06T07:38:48.835Z,64.10
2023-03-06T07:41:17.196Z,65.75
2023-03-06T07:43:45.755Z,60.80
2023-03-06T07:46:14.688Z,60.30
2023-03-06T07:48:42.283Z,64.85
2023-03-06T07:51:15.059Z,72.07
2023-03-06T07:53:41.921Z,60.65
2023-03-06T07:56:09.560Z,63.17
2023-03-06T07:58:38.161Z,67.85
2023-03-06T08:01:11.507Z,60.58
2023-03-06T08:03:39.208Z,67.03
2023-03-06T08:06:15.647Z,63.90
2023-03-06T08:08:44.691Z,62.72
2023-03-06T08:11:13.578Z,61.40
2023-03-06T08:13:40.837Z,63.88
2023-03-06T08:16:08.732Z,60.88
2023-03-06T08:18:36.065Z,59.25
2023-03-06T08:21:08.530Z,60.78
2023-03-06T08:23:36.284Z,61.88
2023-03-06T08:26:06.755Z,61.35
2023-03-06T08:28:34.211Z,63.25
2023-03-06T08:31:09.673Z,62.05
2023-03-06T08:33:36.702Z,66.15
2023-03-06T08:36:03.823Z,62.65
2023-03-06T08:38:30.678Z,62.05
2023-03-06T08:40:57.564Z,60.95
2023-03-06T08:43:24.458Z,64.43
2023-03-06T08:45:56.493Z,64.57
2023-03-06T08:48:23.563Z,61.70
2023-03-06T08:50:50.524Z,59.92
2023-03-06T08:53:17.834Z,57.92
2023-03-06T08:55:44.947Z,55.28
2023-03-06T08:58:11.901Z,56.65
2023-03-06T09:00:39.580Z,58.47
2023-03-06T09:03:06.550Z,57.78
2023-03-06T09:05:33.974Z,55.13
2023-03-06T09:08:00.977Z,58.70
2023-03-06T09:10:28.188Z,60.05
2023-03-06T09:12:55.626Z,56.50
2023-03-06T09:15:23.376Z,55.65
2023-03-06T09:17:50.963Z,61.08
2023-03-06T09:20:18.912Z,58.60
2023-03-06T09:22:46.070Z,59.60
2023-03-06T09:25:13.983Z,56.85
2023-03-06T09:27:41.782Z,59.90
2023-03-06T09:30:09.489Z,60.17
2023-03-06T09:32:36.494Z,55.88
2023-03-06T09:35:03.744Z,53.40
2023-03-06T09:37:30.715Z,58.65
2023-03-06T09:39:57.871Z,58.05
2023-03-06T09:42:25.519Z,57.80
2023-03-06T09:45:02.173Z,52.72
2023-03-06T09:47:53.699Z,56.08
2023-03-06T09:50:38.647Z,58.80
2023-03-06T09:53:32.750Z,52.65
2023-03-06T09:56:07.537Z,57.65
2023-03-06T09:58:40.825Z,52.90
2023-03-06T10:01:21.379Z,47.15
2023-03-06T10:03:50.952Z,46.33
2023-03-06T10:06:53.065Z,49.60
2023-03-06T10:09:36.517Z,49.65
2023-03-06T10:12:29.495Z,47.47
2023-03-06T10:15:07.870Z,48.65
2023-03-06T10:17:44.014Z,50.85
2023-03-06T10:20:26.499Z,44.30
2023-03-06T10:23:27.852Z,44.25
2023-03-06T10:26:08.218Z,47.15
2023-03-06T10:28:40.989Z,41.45
2023-03-06T10:31:24.944Z,45.35
2023-03-06T10:33:59.375Z,52.92
2023-03-06T10:36:29.773Z,41.15
2023-03-06T10:38:58.953Z,37.10
2023-03-06T10:41:30.035Z,40.40
2023-03-06T10:44:05.769Z,39.70
2023-03-06T10:46:34.720Z,42.60
2023-03-06T10:49:22.776Z,37.63
2023-03-06T10:51:57.212Z,35.20
2023-03-06T10:54:24.601Z,34.90
2023-03-06T10:56:51.560Z,32.45
2023-03-06T10:59:28.250Z,43.53
2023-03-06T11:02:19.221Z,33.03
2023-03-06T11:04:47.422Z,30.80
2023-03-06T11:07:20.304Z,34.35
2023-03-06T11:09:59.397Z,31.58
2023-03-06T11:12:36.927Z,40.10
2023-03-06T11:15:18.683Z,29.00
2023-03-06T11:17:50.488Z,33.35
2023-03-06T11:20:31.783Z,31.23
2023-03-06T11:23:31.347Z,32.85
2023-03-06T11:26:01.392Z,30.45
2023-03-06T11:28:33.183Z,27.08
2023-03-06T11:31:09.149Z,28.15
2023-03-06T11:33:49.010Z,29.17
2023-03-06T11:36:34.066Z,24.52
2023-03-06T11:39:04.616Z,30.85
2023-03-06T11:41:37.385Z,28.02
2023-03-06T11:44:04.272Z,35.63
2023-03-06T11:46:44.105Z,28.38
2023-03-06T11:49:32.600Z,30.70
2023-03-06T11:52:17.682Z,22.95
2023-03-06T11:54:46.968Z,22.45
2023-03-06T11:57:20.697Z,25.35
2023-03-06T12:00:19.766Z,28.58
2023-03-06T12:03:00.798Z,26.08
2023-03-06T12:05:52.699Z,27.13
2023-03-06T12:09:13.464Z,25.77
2023-03-06T12:11:54.364Z,23.52
2023-03-06T12:14:24.038Z,24.98
2023-03-06T12:17:05.733Z,22.80
2023-03-06T12:19:41.227Z,24.50
2023-03-06T12:22:44.339Z,29.38
2023-03-06T12:25:31.421Z,31.13
2023-03-06T12:28:34.834Z,27.85
2023-03-06T12:31:24.924Z,25.20
2023-03-06T12:34:04.653Z,24.35
2023-03-06T12:37:01.582Z,25.95
2023-03-06T12:39:43.135Z,25.60
2023-03-06T12:42:31.555Z,24.85
2023-03-06T12:45:04.319Z,26.05
2023-03-06T12:47:36.271Z,23.35
2023-03-06T12:50:13.795Z,22.85
2023-03-06T12:52:41.946Z,25.27
2023-03-06T12:55:16.674Z,44.15
2023-03-06T12:57:43.596Z,25.52
2023-03-06T13:00:37.616Z,18.08
2023-03-06T13:03:44.982Z,20.52
2023-03-06T13:06:20.794Z,21.00
2023-03-06T13:09:06.372Z,18.60
2023-03-06T13:12:08.327Z,20.77
2023-03-06T13:14:55.808Z,20.52
2023-03-06T13:17:37.761Z,20.73
2023-03-06T13:20:13.721Z,24.30
2023-03-06T13:22:45.038Z,18.92
2023-03-06T13:25:20.754Z,23.50
2023-03-06T13:27:53.595Z,23.73
2023-03-06T13:30:44.782Z,22.77
2023-03-06T13:33:32.931Z,20.42
2023-03-06T13:36:20.151Z,19.48
2023-03-06T13:38:52.500Z,27.25
2023-03-06T13:41:31.142Z,20.40
2023-03-06T13:44:23.064Z,22.80
2023-03-06T13:47:06.425Z,24.23
2023-03-06T13:49:34.899Z,22.92
2023-03-06T13:52:18.209Z,21.92
2023-03-06T13:55:03.934Z,21.35
2023-03-06T13:57:44.499Z,20.83
2023-03-06T14:00:41.852Z,21.27
2023-03-06T14:03:44.618Z,21.40
2023-03-06T14:06:37.307Z,24.30
2023-03-06T14:09:06.189Z,21.60
2023-03-06T14:11:34.910Z,26.13
2023-03-06T14:14:02.187Z,30.27
2023-03-06T14:16:48.985Z,22.67
2023-03-06T14:19:17.855Z,24.92
2023-03-06T14:21:56.315Z,25.15
2023-03-06T14:24:33.909Z,27.50
2023-03-06T14:27:01.358Z,28.20
2023-03-06T14:29:30.156Z,22.42
2023-03-06T14:31:59.452Z,23.80
2023-03-06T14:34:46.339Z,22.98
2023-03-06T14:37:25.153Z,23.95
2023-03-06T14:39:52.597Z,27.70
2023-03-06T14:42:19.386Z,26.90
2023-03-06T14:44:48.170Z,19.83
2023-03-06T14:47:26.752Z,26.83
2023-03-06T14:50:18.703Z,25.05
2023-03-06T14:52:46.260Z,26.77
2023-03-06T14:55:19.863Z,22.55
2023-03-06T14:58:03.821Z,22.65
2023-03-06T15:00:39.299Z,22.65
2023-03-06T15:03:13.145Z,21.88
2023-03-06T15:05:42.985Z,25.58
2023-03-06T15:08:10.056Z,18.85
2023-03-06T15:10:38.877Z,24.83
2023-03-06T15:13:32.918Z,23.95
2023-03-06T15:16:30.381Z,22.90
2023-03-06T15:19:01.745Z,24.10
2023-03-06T15:21:38.055Z,22.02
2023-03-06T15:24:28.100Z,30.00
2023-03-06T15:26:59.160Z,21.70
2023-03-06T15:29:27.892Z,25.50
2023-03-06T15:32:32.409Z,33.05
2023-03-06T15:35:24.379Z,25.58
2023-03-06T15:37:52.064Z,24.90
2023-03-06T15:40:21.413Z,22.50
2023-03-06T15:42:50.088Z,25.27
2023-03-06T15:45:19.685Z,21.95
2023-03-06T15:47:48.507Z,25.33
2023-03-06T15:50:24.138Z,18.90
2023-03-06T15:52:51.365Z,25.30
2023-03-06T15:55:21.449Z,18.92
2023-03-06T15:57:51.915Z,23.48
2023-03-06T16:00:28.619Z,15.25
2023-03-06T16:02:57.962Z,13.57
2023-03-06T16:05:27.112Z,15.68
2023-03-06T16:07:54.481Z,12.77
2023-03-06T16:10:24.111Z,13.75
2023-03-06T16:13:03.800Z,12.85
2023-03-06T16:15:36.057Z,15.60
2023-03-06T16:18:03.161Z,12.57
2023-03-06T16:20:30.334Z,14.07
2023-03-06T16:22:57.685Z,12.35
2023-03-06T16:25:28.162Z,12.57
2023-03-06T16:27:59.017Z,11.30
2023-03-06T16:30:31.993Z,14.13
2023-03-06T16:32:59.524Z,10.57
2023-03-06T16:35:26.923Z,10.05
2023-03-06T16:37:54.423Z,11.30
2023-03-06T16:40:24.287Z,14.57
2023-03-06T16:42:54.025Z,14.75
2023-03-06T16:45:24.365Z,10.27
2023-03-06T16:47:51.498Z,10.32
2023-03-06T16:50:26.131Z,9.65
2023-03-06T16:52:54.504Z,14.18
2023-03-06T16:55:22.404Z,17.42
2023-03-06T16:57:51.302Z,10.60
2023-03-06T17:00:20.325Z,15.77
2023-03-06T17:02:52.443Z,14.75
2023-03-06T17:05:20.255Z,13.55
2023-03-06T17:07:47.351Z,15.20
2023-03-06T17:10:15.928Z,12.32
2023-03-06T17:12:43.835Z,11.52
2023-03-06T17:15:11.901Z,11.05
2023-03-06T17:17:38.822Z,9.90
2023-03-06T17:20:08.328Z,9.93
2023-03-06T17:22:36.572Z,9.88
2023-03-06T17:25:06.878Z,11.35
2023-03-06T17:27:34.363Z,8.13
2023-03-06T17:30:01.602Z,7.00
2023-03-06T17:32:28.692Z,8.23
2023-03-06T17:34:55.681Z,7.68
2023-03-06T17:37:22.666Z,6.10
2023-03-06T17:39:49.866Z,9.52
2023-03-06T17:42:18.717Z,9.10
2023-03-06T17:44:46.355Z,10.48
2023-03-06T17:47:13.468Z,10.25
2023-03-06T17:49:40.267Z,9.90
2023-03-06T17:52:07.423Z,9.68
2023-03-06T17:54:34.756Z,11.18
2023-03-06T17:57:03.711Z,11.90
2023-03-06T17:59:34.021Z,16.98
2023-03-06T18:02:02.462Z,11.68
2023-03-06T18:04:29.949Z,14.52
2023-03-06T18:06:58.433Z,12.48
2023-03-06T18:09:25.553Z,15.98
2023-03-06T18:11:52.541Z,13.73
2023-03-06T18:14:19.568Z,14.35
2023-03-06T18:16:46.533Z,16.08
2023-03-06T18:19:13.727Z,16.50
2023-03-06T18:21:40.919Z,15.90
2023-03-06T18:24:09.256Z,18.65
2023-03-06T18:26:36.555Z,12.57
2023-03-06T18:29:04.680Z,16.35
2023-03-06T18:31:37.498Z,18.48
2023-03-06T18:34:11.117Z,14.55
2023-03-06T18:36:38.675Z,17.98
2023-03-06T18:39:08.863Z,18.77
2023-03-06T18:41:36.420Z,16.90
2023-03-06T18:44:03.853Z,16.88
2023-03-06T18:46:36.478Z,17.30
2023-03-06T18:49:04.081Z,19.50
2023-03-06T18:51:31.423Z,22.48
2023-03-06T18:54:00.305Z,19.17
2023-03-06T18:56:27.635Z,17.70
2023-03-06T18:58:55.397Z,18.00
2023-03-06T19:01:23.391Z,17.90
2023-03-06T19:03:50.637Z,18.52
2023-03-06T19:06:17.981Z,19.73
2023-03-06T19:08:45.474Z,13.82
2023-03-06T19:11:16.050Z,21.83
2023-03-06T19:13:44.362Z,18.02
2023-03-06T19:16:24.632Z,17.40
2023-03-06T19:18:52.999Z,15.57
2023-03-06T19:21:22.595Z,14.95
2023-03-06T19:23:50.380Z,10.77
2023-03-06T19:26:24.292Z,10.50
2023-03-06T19:28:52.960Z,8.52
2023-03-06T19:31:28.625Z,15.80
2023-03-06T19:33:57.656Z,8.95
2023-03-06T19:36:29.264Z,7.95
2023-03-06T19:38:59.072Z,12.45
2023-03-06T19:41:27.697Z,14.43
2023-03-06T19:44:02.458Z,9.15
2023-03-06T19:46:30.327Z,9.48
2023-03-06T19:49:12.707Z,12.35
2023-03-06T19:51:40.760Z,15.85
2023-03-06T19:54:09.618Z,11.95
2023-03-06T19:56:37.747Z,13.38
2023-03-06T19:59:05.525Z,11.73
2023-03-06T20:01:34.928Z,15.20
2023-03-06T20:04:03.642Z,18.48
2023-03-06T20:06:33.917Z,10.45
2023-03-06T20:09:03.897Z,15.68
2023-03-06T20:11:31.937Z,13.05
2023-03-06T20:14:05.149Z,9.88
2023-03-06T20:16:33.603Z,7.22
2023-03-06T20:19:02.424Z,10.70
2023-03-06T20:21:31.767Z,11.32
2023-03-06T20:23:59.686Z,14.05
2023-03-06T20:26:32.590Z,11.38
2023-03-06T20:29:00.435Z,9.70
2023-03-06T20:31:30.368Z,7.35
2023-03-06T20:33:59.183Z,8.00
2023-03-06T20:36:29.164Z,12.07
2023-03-06T20:38:58.865Z,15.63
2023-03-06T20:41:29.046Z,13.35
2023-03-06T20:43:58.274Z,11.77
2023-03-06T20:46:26.441Z,11.57
2023-03-06T20:48:54.926Z,17.90
2023-03-06T20:51:24.491Z,14.30
2023-03-06T20:53:56.200Z,12.43
2023-03-06T20:56:26.223Z,17.90
2023-03-06T20:58:53.362Z,14.77
2023-03-06T21:01:24.612Z,9.07
2023-03-06T21:03:52.520Z,9.23
2023-03-06T21:06:20.847Z,14.98
2023-03-06T21:08:48.266Z,8.23
2023-03-06T21:11:16.169Z,16.05
2023-03-06T21:13:43.227Z,12.90
2023-03-06T21:16:15.735Z,7.95
2023-03-06T21:18:43.169Z,10.35
2023-03-06T21:21:18.563Z,11.18
2023-03-06T21:23:47.250Z,8.82
2023-03-06T21:26:16.957Z,9.07
2023-03-06T21:28:44.211Z,14.50
2023-03-06T21:31:12.717Z,13.70
2023-03-06T21:33:39.964Z,11.80
2023-03-06T21:36:07.525Z,13.18
2023-03-06T21:38:34.982Z,7.22
2023-03-06T21:41:18.890Z,10.55
2023-03-06T21:43:46.155Z,10.77
2023-03-06T21:46:13.829Z,11.48
2023-03-06T21:48:40.979Z,15.27
2023-03-06T21:51:09.545Z,11.20
2023-03-06T21:53:37.706Z,8.82
2023-03-06T21:56:05.243Z,13.30
2023-03-06T21:58:32.341Z,12.52
2023-03-06T22:00:59.725Z,9.60
2023-03-06T22:03:29.965Z,12.75
2023-03-06T22:05:56.940Z,12.65
2023-03-06T22:08:25.237Z,7.72
2023-03-06T22:10:52.343Z,10.68
2023-03-06T22:13:23.010Z,8.32
2023-03-06T22:15:55.232Z,10.30
2023-03-06T22:18:22.265Z,14.50
2023-03-06T22:20:49.088Z,8.25
2023-03-06T22:23:16.062Z,11.38
2023-03-06T22:25:42.925Z,14.23
2023-03-06T22:28:09.953Z,17.17
2023-03-06T22:30:36.770Z,8.82
2023-03-06T22:33:03.777Z,8.52
2023-03-06T22:35:30.789Z,17.05
2023-03-06T22:37:58.839Z,8.45
2023-03-06T22:40:26.042Z,11.52
2023-03-06T22:42:52.972Z,9.82
2023-03-06T22:45:19.950Z,13.88
2023-03-06T22:47:47.015Z,14.77
2023-03-06T22:50:14.584Z,14.23
2023-03-06T22:52:41.486Z,13.90
2023-03-06T22:55:09.417Z,15.77
2023-03-06T22:57:36.454Z,10.52
2023-03-06T23:00:04.543Z,12.10
2023-03-06T23:02:35.191Z,15.68
2023-03-06T23:05:02.108Z,13.57
2023-03-06T23:07:28.995Z,16.83
2023-03-06T23:09:55.966Z,12.45
2023-03-06T23:12:22.901Z,10.40
2023-03-06T23:14:51.333Z,11.98
2023-03-06T23:17:18.364Z,14.82
2023-03-06T23:19:45.423Z,14.07
2023-03-06T23:22:14.150Z,13.10
2023-03-06T23:24:41.092Z,19.45
2023-03-06T23:27:07.991Z,17.17
2023-03-06T23:29:35.004Z,18.80
2023-03-06T23:32:02.026Z,16.85
2023-03-06T23:34:29.160Z,19.70
2023-03-06T23:36:56.430Z,15.98
2023-03-06T23:39:23.639Z,20.55
2023-03-06T23:41:50.644Z,14.52
2023-03-06T23:44:17.599Z,20.73
2023-03-06T23:46:44.460Z,16.83
2023-03-06T23:49:11.388Z,20.45
2023-03-06T23:51:38.435Z,23.10
2023-03-06T23:54:05.793Z,18.33
2023-03-06T23:56:32.708Z,19.05
2023-03-06T23:58:59.913Z,23.95
